»·PEaware :: SWA2146 KPDX-KBOI

SWA2146 :: KPDX-KBOI

FLIGHT INFORMATION

Flight Status: Arrived
Operator:
Southwest Airlines
More flights by this operator :: More flights under this callsign
Pilot: Sanjiv S. (4490)
Aircraft: BOEING 737-800
(B738)
More flights by this aircraft type
Origin: KPDX Portland Intl
United States
Destination: KBOI Boise Air Terminal/Gowen
United States
More flights between these airports :: More routes between these airports
Route: WHAMY4 IMB HOSTS PARMO3
File this flight plan on PilotEdge
Remarks:
Altitude:
(Current/Filed)
31,000ft
Speed:
(Current/Filed)
440kts
Departed: 24-Dec-17 09:52 AM
Arrived: 24-Dec-17 10:56 AM
Distance/Time
Traveled:
298nm/1:04
Distance/Time
To Go:
Arrived

Flight Plot

Page will automatically refresh every two minutes.

Flight plan parsing failed; only flown route is shown


Map Options




Map Legend


Flown Route
Filed Route
Departure Airport
Arrival Airport
Navaid (VOR, NDB)
Fix

Horizontal Profiles

Position Reports

Time Latitude Longitude Heading Altitude Ground
Speed
24-Dec-17 09:31 45.590605 -122.599436 197 37ft 0kts
24-Dec-17 09:32 45.590605 -122.599436 197 37ft 0kts
24-Dec-17 09:33 45.590605 -122.599436 197 37ft 0kts
24-Dec-17 09:34 45.590605 -122.599436 197 37ft 0kts
24-Dec-17 09:35 45.590605 -122.599436 197 37ft 0kts
24-Dec-17 09:36 45.590605 -122.599436 197 37ft 0kts
24-Dec-17 09:37 45.590605 -122.599436 197 37ft 0kts
24-Dec-17 09:38 45.590605 -122.599436 197 37ft 0kts
24-Dec-17 09:39 45.590605 -122.599436 197 37ft 0kts
24-Dec-17 09:40 45.590605 -122.599436 197 37ft 0kts
24-Dec-17 09:41 45.590605 -122.599436 197 37ft 0kts
24-Dec-17 09:42 45.590605 -122.599436 197 37ft 0kts
24-Dec-17 09:43 45.590605 -122.599436 197 37ft 0kts
24-Dec-17 09:44 45.590605 -122.599436 197 37ft 0kts
24-Dec-17 09:45 45.590605 -122.599436 197 37ft 0kts
24-Dec-17 09:46 45.590605 -122.599436 197 37ft 0kts
24-Dec-17 09:47 45.590922 -122.599192 228 37ft 2kts
24-Dec-17 09:48 45.591018 -122.598400 293 37ft 2kts
24-Dec-17 09:49 45.590968 -122.598269 299 37ft 0kts
24-Dec-17 09:50 45.590968 -122.598269 299 37ft 0kts
24-Dec-17 09:51 45.590968 -122.598269 299 37ft 0kts
24-Dec-17 09:52 45.591722 -122.599469 315 37ft 7kts
24-Dec-17 09:53 45.593709 -122.598888 356 37ft 8kts
24-Dec-17 09:54 45.595068 -122.600919 358 36ft 6kts
24-Dec-17 09:55 45.595576 -122.600608 30 37ft 0kts
24-Dec-17 09:56 45.595664 -122.600533 30 37ft 4kts
24-Dec-17 09:57 45.596193 -122.599180 112 37ft 7kts
24-Dec-17 09:58 45.582652 -122.562195 114 1250ft 142kts
24-Dec-17 09:59 45.570727 -122.505810 97 2383ft 209kts
24-Dec-17 10:00 45.565015 -122.453680 106 3873ft 236kts
24-Dec-17 10:01 45.554903 -122.399731 107 5824ft 249kts
24-Dec-17 10:02 45.542649 -122.337973 119 7755ft 265kts
24-Dec-17 10:03 45.507312 -122.293377 149 9707ft 274kts
24-Dec-17 10:04 45.468389 -122.251190 140 11045ft 309kts
24-Dec-17 10:05 45.431885 -122.204081 140 12732ft 322kts
24-Dec-17 10:06 45.389229 -122.149662 141 14592ft 334kts
24-Dec-17 10:07 45.342368 -122.090170 142 16497ft 347kts
24-Dec-17 10:08 45.299545 -122.035849 142 18118ft 359kts
24-Dec-17 10:09 45.252269 -121.967057 123 19876ft 382kts
24-Dec-17 10:10 45.225401 -121.870937 113 21556ft 400kts
24-Dec-17 10:11 45.196667 -121.764547 114 23254ft 415kts
24-Dec-17 10:12 45.170228 -121.668109 114 24688ft 427kts
24-Dec-17 10:13 45.137770 -121.549787 114 26233ft 443kts
24-Dec-17 10:14 45.107068 -121.437535 114 27785ft 451kts
24-Dec-17 10:15 45.076325 -121.324829 115 29201ft 457kts
24-Dec-17 10:16 45.046403 -121.214516 116 30400ft 463kts
24-Dec-17 10:17 45.018687 -121.112254 115 31331ft 470kts
24-Dec-17 10:18 44.983305 -120.981440 114 31582ft 502kts
24-Dec-17 10:19 44.947962 -120.849938 113 31580ft 538kts
24-Dec-17 10:20 44.913691 -120.721821 113 31514ft 551kts
24-Dec-17 10:21 44.877381 -120.585575 113 31458ft 550kts
24-Dec-17 10:22 44.842740 -120.455060 112 31407ft 550kts
24-Dec-17 10:23 44.805257 -120.313068 113 31333ft 550kts
24-Dec-17 10:24 44.769264 -120.175851 113 31311ft 550kts
24-Dec-17 10:25 44.733232 -120.038163 113 31298ft 550kts
24-Dec-17 10:26 44.699832 -119.910025 113 31294ft 550kts
24-Dec-17 10:27 44.667677 -119.786109 112 31295ft 550kts
24-Dec-17 10:28 44.644724 -119.697702 114 31296ft 550kts
24-Dec-17 10:29 44.607023 -119.573564 117 31300ft 548kts
24-Dec-17 10:30 44.568898 -119.451182 117 31302ft 549kts
24-Dec-17 10:31 44.521501 -119.298512 117 31285ft 547kts
24-Dec-17 10:32 44.465867 -119.118461 117 31290ft 548kts
24-Dec-17 10:33 44.405832 -118.923459 116 31294ft 549kts
24-Dec-17 10:34 44.345701 -118.726983 115 31298ft 550kts
24-Dec-17 10:35 44.286000 -118.530792 114 31302ft 551kts
24-Dec-17 10:36 44.228760 -118.341647 114 31303ft 551kts
24-Dec-17 10:37 44.174526 -118.160920 115 30425ft 504kts
24-Dec-17 10:38 44.123029 -117.988945 114 28085ft 467kts
24-Dec-17 10:39 44.073859 -117.824020 114 25847ft 462kts
24-Dec-17 10:40 44.025990 -117.662567 114 23642ft 438kts
24-Dec-17 10:41 43.980835 -117.510140 115 21528ft 417kts
24-Dec-17 10:42 43.935161 -117.367563 115 19258ft 396kts
24-Dec-17 10:43 43.894279 -117.239507 116 17275ft 373kts
24-Dec-17 10:44 43.853092 -117.110201 115 15445ft 358kts
24-Dec-17 10:45 43.813473 -116.986665 115 13694ft 343kts
24-Dec-17 10:46 43.776377 -116.872658 114 12057ft 310kts
24-Dec-17 10:47 43.747891 -116.784636 113 10800ft 300kts
24-Dec-17 10:48 43.709971 -116.666556 116 9114ft 273kts
24-Dec-17 10:49 43.679932 -116.573452 116 7789ft 263kts
24-Dec-17 10:50 43.650703 -116.482542 115 6491ft 256kts
24-Dec-17 10:51 43.621892 -116.395014 116 5324ft 244kts
24-Dec-17 10:52 43.600484 -116.332093 116 4165ft 236kts
24-Dec-17 10:53 43.571553 -116.246517 110 3120ft 211kts
24-Dec-17 10:54 43.546446 -116.195676 165 3686ft 181kts
24-Dec-17 10:55 43.506220 -116.216042 208 5147ft 199kts
24-Dec-17 10:56 43.494052 -116.285463 278 5152ft 215kts
24-Dec-17 10:57 43.502215 -116.384459 285 5149ft 229kts
24-Dec-17 10:58 43.547201 -116.414120 18 5093ft 245kts
24-Dec-17 10:59 43.599094 -116.351974 60 4367ft 222kts
24-Dec-17 11:00 43.586315 -116.290045 118 3492ft 164kts
24-Dec-17 11:01 43.569176 -116.240039 112 2859ft 134kts
24-Dec-17 11:02 43.565523 -116.223694 3 2850ft 11kts
24-Dec-17 11:03 43.566671 -116.222894 105 2850ft 7kts
24-Dec-17 11:04 43.565305 -116.218710 117 2850ft 14kts
24-Dec-17 11:05 43.567492 -116.216875 55 2850ft 9kts
24-Dec-17 11:06 43.566754 -116.216417 205 2850ft 0kts

Navigation Log

Ident Type
Flight plan parsing failed, navigation log unavailable